createdAt,value
2017-08-01T00:01:54.410Z,22.57
2017-08-01T00:04:21.820Z,22.61
2017-08-01T00:06:49.204Z,22.49
2017-08-01T00:09:16.607Z,22.52
2017-08-01T00:11:43.988Z,22.51
2017-08-01T00:14:11.389Z,22.54
2017-08-01T00:16:38.783Z,22.51
2017-08-01T00:19:06.175Z,22.48
2017-08-01T00:21:33.568Z,22.45
2017-08-01T00:24:00.958Z,22.44
2017-08-01T00:26:28.391Z,22.45
2017-08-01T00:28:55.792Z,22.48
2017-08-01T00:31:23.174Z,22.46
2017-08-01T00:33:50.570Z,22.50
2017-08-01T00:36:17.960Z,22.49
2017-08-01T00:38:45.374Z,22.49
2017-08-01T00:41:12.820Z,22.55
2017-08-01T00:43:40.207Z,22.56
2017-08-01T00:46:07.603Z,22.62
2017-08-01T00:48:34.983Z,22.72
2017-08-01T00:51:02.388Z,22.60
2017-08-01T00:53:29.770Z,22.58
2017-08-01T00:55:57.159Z,22.66
2017-08-01T00:58:24.552Z,22.67
2017-08-01T01:00:52.945Z,22.66
2017-08-01T01:03:20.548Z,22.65
2017-08-01T01:05:48.195Z,22.62
2017-08-01T01:08:15.571Z,22.61
2017-08-01T01:10:42.975Z,22.62
2017-08-01T01:13:10.367Z,22.65
2017-08-01T01:15:37.759Z,22.62
2017-08-01T01:18:05.155Z,22.50
2017-08-01T01:20:32.546Z,22.49
2017-08-01T01:22:59.932Z,22.51
2017-08-01T01:25:27.323Z,22.39
2017-08-01T01:27:54.715Z,22.36
2017-08-01T01:30:22.108Z,22.26
2017-08-01T01:32:49.510Z,22.24
2017-08-01T01:35:16.895Z,22.23
2017-08-01T01:37:44.307Z,22.25
2017-08-01T01:40:11.688Z,22.18
2017-08-01T01:42:39.299Z,22.17
2017-08-01T01:45:06.684Z,22.23
2017-08-01T01:47:34.087Z,22.12
2017-08-01T01:50:01.486Z,22.20
2017-08-01T01:52:28.860Z,22.14
2017-08-01T01:54:56.258Z,21.97
2017-08-01T01:57:23.650Z,22.04
2017-08-01T01:59:51.036Z,21.92
2017-08-01T02:02:18.436Z,22.00
2017-08-01T02:04:45.827Z,22.04
2017-08-01T02:07:13.219Z,22.03
2017-08-01T02:09:40.620Z,22.14
2017-08-01T02:12:08.011Z,22.16
2017-08-01T02:14:35.407Z,22.18
2017-08-01T02:17:02.799Z,22.22
2017-08-01T02:19:30.203Z,22.21
2017-08-01T02:21:57.593Z,22.13
2017-08-01T02:24:24.974Z,22.11
2017-08-01T02:26:52.379Z,22.18
2017-08-01T02:29:19.770Z,22.11
2017-08-01T02:31:47.175Z,22.08
2017-08-01T02:34:14.569Z,22.03
2017-08-01T02:36:41.962Z,22.04
2017-08-01T02:39:09.352Z,22.11
2017-08-01T02:41:36.735Z,22.15
2017-08-01T02:44:04.135Z,22.21
2017-08-01T02:46:31.524Z,22.27
2017-08-01T02:48:58.935Z,22.27
2017-08-01T02:51:26.323Z,22.27
2017-08-01T02:53:53.718Z,22.30
2017-08-01T02:56:21.115Z,22.35
2017-08-01T02:58:48.663Z,22.33
2017-08-01T03:01:16.056Z,22.34
2017-08-01T03:03:43.443Z,22.29
2017-08-01T03:06:10.867Z,22.07
2017-08-01T03:08:38.244Z,22.04
2017-08-01T03:11:05.640Z,22.06
2017-08-01T03:13:33.115Z,21.91
2017-08-01T03:16:00.500Z,21.93
2017-08-01T03:18:27.892Z,21.88
2017-08-01T03:20:55.287Z,21.81
2017-08-01T03:23:22.683Z,21.92
2017-08-01T03:25:50.071Z,21.74
2017-08-01T03:28:17.473Z,21.81
2017-08-01T03:30:44.860Z,21.87
2017-08-01T03:33:12.265Z,21.96
2017-08-01T03:35:39.664Z,21.89
2017-08-01T03:38:07.056Z,21.92
2017-08-01T03:40:34.445Z,21.92
2017-08-01T03:43:01.826Z,21.92
2017-08-01T03:45:29.234Z,21.92
2017-08-01T03:47:56.648Z,21.85
2017-08-01T03:50:24.050Z,21.82
2017-08-01T03:52:51.436Z,21.76
2017-08-01T03:55:18.827Z,21.79
2017-08-01T03:57:46.232Z,21.67
2017-08-01T04:00:13.679Z,21.44
2017-08-01T04:02:41.052Z,21.55
2017-08-01T04:05:08.446Z,21.45
2017-08-01T04:07:35.826Z,21.48
2017-08-01T04:10:03.224Z,21.43
2017-08-01T04:12:30.610Z,21.52
2017-08-01T04:14:58.016Z,21.53
2017-08-01T04:17:25.413Z,21.53
2017-08-01T04:19:52.817Z,21.57
2017-08-01T04:22:20.239Z,21.56
2017-08-01T04:24:47.615Z,21.64
2017-08-01T04:27:15.015Z,21.76
2017-08-01T04:29:42.410Z,21.78
2017-08-01T04:32:09.810Z,21.76
2017-08-01T04:34:37.198Z,21.69
2017-08-01T04:37:04.602Z,21.73
2017-08-01T04:39:31.987Z,21.88
2017-08-01T04:41:59.393Z,21.89
2017-08-01T04:44:26.778Z,21.91
2017-08-01T04:46:54.175Z,21.87
2017-08-01T04:49:21.591Z,21.89
2017-08-01T04:51:49.000Z,21.91
2017-08-01T04:54:16.387Z,21.96
2017-08-01T04:56:43.789Z,21.96
2017-08-01T04:59:11.178Z,22.03
2017-08-01T05:01:38.571Z,22.08
2017-08-01T05:04:05.963Z,22.04
2017-08-01T05:06:33.371Z,21.95
2017-08-01T05:09:00.771Z,21.97
2017-08-01T05:11:28.169Z,21.86
2017-08-01T05:13:55.578Z,21.88
2017-08-01T05:16:22.976Z,21.83
2017-08-01T05:18:50.379Z,21.79
2017-08-01T05:21:17.767Z,21.71
2017-08-01T05:23:45.162Z,21.64
2017-08-01T05:26:12.554Z,21.60
2017-08-01T05:28:39.950Z,21.55
2017-08-01T05:31:07.355Z,21.61
2017-08-01T05:33:34.746Z,21.58
2017-08-01T05:36:02.130Z,21.62
2017-08-01T05:38:29.532Z,21.54
2017-08-01T05:40:56.955Z,21.55
2017-08-01T05:43:24.580Z,21.52
2017-08-01T05:45:51.990Z,21.38
2017-08-01T05:48:19.382Z,21.41
2017-08-01T05:50:46.790Z,21.46
2017-08-01T05:53:14.183Z,21.48
2017-08-01T05:55:42.254Z,21.50
2017-08-01T05:58:09.676Z,21.57
2017-08-01T06:00:37.060Z,21.54
2017-08-01T06:03:04.628Z,21.58
2017-08-01T06:05:32.042Z,21.57
2017-08-01T06:07:59.418Z,21.57
2017-08-01T06:10:26.810Z,21.64
2017-08-01T06:12:54.194Z,21.71
2017-08-01T06:15:21.590Z,21.77
2017-08-01T06:17:48.974Z,21.81
2017-08-01T06:20:16.373Z,21.81
2017-08-01T06:22:43.758Z,21.86
2017-08-01T06:25:11.158Z,21.91
2017-08-01T06:27:38.539Z,21.99
2017-08-01T06:30:05.932Z,22.03
2017-08-01T06:32:33.315Z,22.15
2017-08-01T06:35:00.715Z,22.17
2017-08-01T06:37:28.105Z,22.26
2017-08-01T06:39:55.503Z,22.40
2017-08-01T06:42:22.882Z,22.41
2017-08-01T06:44:50.278Z,22.47
2017-08-01T06:47:17.671Z,22.55
2017-08-01T06:49:45.062Z,22.65
2017-08-01T06:52:12.463Z,22.68
2017-08-01T06:54:39.858Z,22.79
2017-08-01T06:57:07.243Z,22.75
2017-08-01T06:59:34.635Z,22.73
2017-08-01T07:02:02.067Z,22.69
2017-08-01T07:04:29.454Z,22.80
2017-08-01T07:06:56.863Z,22.86
2017-08-01T07:09:24.251Z,23.00
2017-08-01T07:11:51.639Z,23.09
2017-08-01T07:14:19.022Z,23.15
2017-08-01T07:16:46.415Z,23.15
2017-08-01T07:19:13.809Z,23.10
2017-08-01T07:21:41.204Z,23.20
2017-08-01T07:24:08.611Z,23.37
2017-08-01T07:26:36.002Z,23.40
2017-08-01T07:29:03.386Z,23.40
2017-08-01T07:31:30.783Z,23.45
2017-08-01T07:33:58.171Z,23.47
2017-08-01T07:36:25.567Z,23.51
2017-08-01T07:38:52.958Z,23.56
2017-08-01T07:41:20.355Z,23.69
2017-08-01T07:43:47.750Z,23.76
2017-08-01T07:46:15.155Z,23.89
2017-08-01T07:48:42.535Z,23.96
2017-08-01T07:51:09.930Z,24.12
2017-08-01T07:53:37.319Z,24.16
2017-08-01T07:56:04.743Z,24.30
2017-08-01T07:58:32.138Z,24.40
2017-08-01T08:00:59.530Z,24.54
2017-08-01T08:03:26.935Z,24.65
2017-08-01T08:05:54.334Z,24.69
2017-08-01T08:08:21.759Z,24.79
2017-08-01T08:10:49.166Z,24.82
2017-08-01T08:13:16.576Z,24.66
2017-08-01T08:15:43.965Z,24.48
2017-08-01T08:18:11.361Z,24.64
2017-08-01T08:20:38.771Z,24.66
2017-08-01T08:23:06.166Z,24.88
2017-08-01T08:25:33.542Z,24.76
2017-08-01T08:28:00.942Z,24.84
2017-08-01T08:30:28.335Z,24.89
2017-08-01T08:32:58.038Z,24.92
2017-08-01T08:35:25.431Z,25.04
2017-08-01T08:37:52.834Z,24.92
2017-08-01T08:40:20.220Z,24.90
2017-08-01T08:42:47.602Z,25.02
2017-08-01T08:45:15.001Z,25.10
2017-08-01T08:47:42.406Z,25.12
2017-08-01T08:50:09.794Z,25.23
2017-08-01T08:52:37.198Z,25.42
2017-08-01T08:55:04.606Z,25.48
2017-08-01T08:57:32.218Z,25.66
2017-08-01T08:59:59.626Z,25.73
2017-08-01T09:02:27.015Z,25.74
2017-08-01T09:04:54.416Z,25.84
2017-08-01T09:07:21.798Z,25.98
2017-08-01T09:09:49.202Z,26.07
2017-08-01T09:12:16.598Z,26.22
2017-08-01T09:14:43.994Z,26.36
2017-08-01T09:17:11.387Z,26.47
2017-08-01T09:19:38.784Z,26.58
2017-08-01T09:22:06.176Z,26.61
2017-08-01T09:24:33.582Z,26.68
2017-08-01T09:27:01.032Z,26.67
2017-08-01T09:29:28.445Z,26.55
2017-08-01T09:31:55.867Z,26.45
2017-08-01T09:34:23.278Z,26.50
2017-08-01T09:36:50.879Z,26.61
2017-08-01T09:39:18.275Z,26.70
2017-08-01T09:41:45.667Z,26.77
2017-08-01T09:44:13.059Z,26.70
2017-08-01T09:46:40.450Z,26.83
2017-08-01T09:49:07.847Z,26.93
2017-08-01T09:51:35.258Z,27.00
2017-08-01T09:54:02.647Z,27.07
2017-08-01T09:56:30.046Z,27.13
2017-08-01T09:58:57.450Z,27.12
2017-08-01T10:01:24.848Z,27.15
2017-08-01T10:03:52.235Z,27.21
2017-08-01T10:06:19.627Z,27.19
2017-08-01T10:08:47.022Z,27.30
2017-08-01T10:11:14.423Z,27.23
2017-08-01T10:13:41.851Z,27.18
2017-08-01T10:16:09.265Z,27.15
2017-08-01T10:18:36.659Z,27.14
2017-08-01T10:21:04.080Z,27.35
2017-08-01T10:23:31.475Z,27.39
2017-08-01T10:25:58.859Z,27.45
2017-08-01T10:28:26.263Z,27.49
2017-08-01T10:30:53.684Z,27.54
2017-08-01T10:33:21.105Z,27.68
2017-08-01T10:35:48.490Z,27.82
2017-08-01T10:38:15.929Z,27.70
2017-08-01T10:40:43.316Z,27.78
2017-08-01T10:43:10.740Z,27.83
2017-08-01T10:45:38.116Z,27.93
2017-08-01T10:48:05.535Z,27.85
2017-08-01T10:50:32.922Z,27.84
2017-08-01T10:53:00.369Z,27.82
2017-08-01T10:55:27.747Z,27.80
2017-08-01T10:57:55.151Z,27.66
2017-08-01T11:00:22.534Z,27.76
2017-08-01T11:02:49.933Z,27.86
2017-08-01T11:05:17.330Z,27.98
2017-08-01T11:07:44.738Z,28.05
2017-08-01T11:10:12.154Z,27.97
2017-08-01T11:12:39.552Z,27.88
2017-08-01T11:15:07.062Z,27.93
2017-08-01T11:17:34.443Z,27.99
2017-08-01T11:20:01.874Z,27.96
2017-08-01T11:22:29.254Z,27.93
2017-08-01T11:24:56.656Z,27.89
2017-08-01T11:27:24.038Z,27.97
2017-08-01T11:29:51.434Z,27.96
2017-08-01T11:32:19.616Z,28.05
2017-08-01T11:34:47.020Z,28.21
2017-08-01T11:37:14.416Z,28.24
2017-08-01T11:39:41.819Z,28.13
2017-08-01T11:42:09.199Z,28.08
2017-08-01T11:44:36.599Z,28.23
2017-08-01T11:47:03.987Z,28.30
2017-08-01T11:49:31.438Z,28.28
2017-08-01T11:51:58.811Z,28.33
2017-08-01T11:54:26.211Z,28.25
2017-08-01T11:56:53.602Z,28.31
2017-08-01T11:59:21.004Z,28.17
2017-08-01T12:01:48.390Z,28.19
2017-08-01T12:04:15.796Z,28.08
2017-08-01T12:06:43.194Z,28.04
2017-08-01T12:09:10.588Z,27.91
2017-08-01T12:11:37.982Z,27.96
2017-08-01T12:14:05.370Z,27.80
2017-08-01T12:16:32.772Z,27.74
2017-08-01T12:19:00.171Z,27.63
2017-08-01T12:21:27.579Z,27.64
2017-08-01T12:23:54.974Z,27.50
2017-08-01T12:26:22.375Z,27.55
2017-08-01T12:28:49.770Z,27.49
2017-08-01T12:31:17.202Z,27.43
2017-08-01T12:33:44.589Z,27.32
2017-08-01T12:36:12.010Z,27.35
2017-08-01T12:38:39.391Z,27.47
2017-08-01T12:41:06.788Z,27.57
2017-08-01T12:43:34.171Z,27.40
2017-08-01T12:46:01.576Z,27.36
2017-08-01T12:48:28.975Z,27.15
2017-08-01T12:50:56.401Z,26.92
2017-08-01T12:53:23.774Z,26.92
2017-08-01T12:55:51.164Z,26.99
2017-08-01T12:58:18.564Z,27.03
2017-08-01T13:00:45.947Z,26.93
2017-08-01T13:03:13.351Z,26.98
2017-08-01T13:05:40.740Z,27.16
2017-08-01T13:08:08.132Z,27.21
2017-08-01T13:10:35.521Z,27.38
2017-08-01T13:13:02.910Z,27.45
2017-08-01T13:15:30.295Z,27.59
2017-08-01T13:17:57.690Z,27.78
2017-08-01T13:20:25.079Z,27.86
2017-08-01T13:22:52.494Z,27.95
2017-08-01T13:25:19.875Z,27.87
2017-08-01T13:27:47.280Z,27.82
2017-08-01T13:30:14.673Z,27.88
2017-08-01T13:32:42.065Z,27.92
2017-08-01T13:35:09.450Z,27.80
2017-08-01T13:37:36.848Z,27.68
2017-08-01T13:40:04.235Z,27.77
2017-08-01T13:42:31.647Z,27.72
2017-08-01T13:44:59.036Z,27.87
2017-08-01T13:47:26.428Z,27.90
2017-08-01T13:49:53.832Z,27.94
2017-08-01T13:52:21.224Z,28.14
2017-08-01T13:54:48.628Z,28.22
2017-08-01T13:57:16.011Z,28.09
2017-08-01T13:59:43.641Z,28.07
2017-08-01T14:02:11.040Z,28.15
2017-08-01T14:04:38.431Z,27.94
2017-08-01T14:07:05.823Z,27.84
2017-08-01T14:09:33.222Z,27.77
2017-08-01T14:12:00.928Z,27.72
2017-08-01T14:14:28.337Z,27.62
2017-08-01T14:16:55.754Z,27.68
2017-08-01T14:19:23.164Z,27.77
2017-08-01T14:21:50.547Z,27.71
2017-08-01T14:24:17.967Z,27.71
2017-08-01T14:26:45.356Z,27.68
2017-08-01T14:29:12.980Z,27.80
2017-08-01T14:31:40.377Z,27.88
2017-08-01T14:34:07.778Z,27.85
2017-08-01T14:36:35.167Z,27.83
2017-08-01T14:39:02.555Z,27.78
2017-08-01T14:41:29.958Z,27.73
2017-08-01T14:43:57.355Z,27.69
2017-08-01T14:46:24.766Z,27.56
2017-08-01T14:48:52.164Z,27.49
2017-08-01T14:51:21.770Z,27.51
2017-08-01T14:53:49.142Z,27.50
2017-08-01T14:56:16.562Z,27.45
2017-08-01T14:58:43.946Z,27.33
2017-08-01T15:01:11.350Z,27.34
2017-08-01T15:03:38.748Z,27.32
2017-08-01T15:06:06.347Z,27.25
2017-08-01T15:08:33.734Z,27.25
2017-08-01T15:11:01.128Z,27.19
2017-08-01T15:13:28.522Z,27.28
2017-08-01T15:15:55.925Z,27.27
2017-08-01T15:18:23.307Z,27.16
2017-08-01T15:20:50.711Z,27.13
2017-08-01T15:23:18.103Z,27.06
2017-08-01T15:25:45.503Z,27.12
2017-08-01T15:28:12.919Z,27.05
2017-08-01T15:30:40.359Z,27.04
2017-08-01T15:33:07.750Z,26.98
2017-08-01T15:35:35.146Z,26.86
2017-08-01T15:38:02.558Z,26.95
2017-08-01T15:40:29.946Z,26.92
2017-08-01T15:42:57.356Z,26.92
2017-08-01T15:45:24.739Z,26.78
2017-08-01T15:47:52.185Z,26.73
2017-08-01T15:50:19.571Z,26.66
2017-08-01T15:52:46.967Z,26.52
2017-08-01T15:55:14.359Z,26.41
2017-08-01T15:57:41.759Z,26.22
2017-08-01T16:00:09.152Z,25.90
2017-08-01T16:02:36.563Z,25.73
2017-08-01T16:05:03.954Z,25.75
2017-08-01T16:07:31.568Z,25.85
2017-08-01T16:09:58.963Z,25.92
2017-08-01T16:12:26.359Z,25.88
2017-08-01T16:14:53.744Z,25.92
2017-08-01T16:17:21.143Z,25.77
2017-08-01T16:19:48.532Z,25.67
2017-08-01T16:22:15.914Z,25.72
2017-08-01T16:24:43.303Z,25.60
2017-08-01T16:27:10.711Z,25.44
2017-08-01T16:29:38.115Z,25.39
2017-08-01T16:32:05.494Z,25.42
2017-08-01T16:34:32.896Z,25.39
2017-08-01T16:37:00.291Z,25.46
2017-08-01T16:39:27.698Z,25.46
2017-08-01T16:41:55.086Z,25.39
2017-08-01T16:44:22.490Z,25.45
2017-08-01T16:46:49.885Z,25.46
2017-08-01T16:49:17.298Z,25.44
2017-08-01T16:51:44.691Z,25.47
2017-08-01T16:54:12.114Z,25.42
2017-08-01T16:56:39.711Z,25.52
2017-08-01T16:59:07.112Z,25.55
2017-08-01T17:01:34.494Z,25.52
2017-08-01T17:04:01.892Z,25.67
2017-08-01T17:06:29.271Z,25.76
2017-08-01T17:08:56.671Z,25.86
2017-08-01T17:11:24.091Z,25.88
2017-08-01T17:13:51.523Z,25.82
2017-08-01T17:16:18.906Z,25.96
2017-08-01T17:18:46.299Z,26.04
2017-08-01T17:21:13.704Z,26.11
2017-08-01T17:23:41.099Z,26.17
2017-08-01T17:26:08.491Z,26.26
2017-08-01T17:28:35.878Z,26.33
2017-08-01T17:31:03.271Z,26.23
2017-08-01T17:33:30.662Z,26.20
2017-08-01T17:35:58.059Z,26.10
2017-08-01T17:38:25.442Z,26.12
2017-08-01T17:40:52.864Z,26.15
2017-08-01T17:43:20.255Z,26.26
2017-08-01T17:45:47.666Z,26.32
2017-08-01T17:48:15.056Z,26.31
2017-08-01T17:50:42.455Z,26.34
2017-08-01T17:53:09.842Z,26.32
2017-08-01T17:55:37.250Z,26.43
2017-08-01T17:58:04.651Z,26.52
2017-08-01T18:03:05.832Z,26.26
2017-08-01T18:05:33.203Z,26.16
2017-08-01T18:08:00.601Z,26.13
2017-08-01T18:10:27.994Z,26.13
2017-08-01T18:12:55.393Z,26.14
2017-08-01T18:15:22.802Z,26.13
2017-08-01T18:17:50.231Z,25.83
2017-08-01T18:20:17.831Z,25.59
2017-08-01T18:22:45.352Z,25.56
2017-08-01T18:25:12.779Z,25.31
2017-08-01T18:27:40.240Z,25.15
2017-08-01T18:30:07.651Z,24.91
2017-08-01T18:32:35.128Z,24.74
2017-08-01T18:35:02.521Z,24.60
2017-08-01T18:37:29.962Z,24.37
2017-08-01T18:39:57.363Z,24.26
2017-08-01T18:42:24.784Z,24.09
2017-08-01T18:44:52.170Z,23.83
2017-08-01T18:47:19.594Z,23.63
2017-08-01T18:49:47.002Z,23.41
2017-08-01T18:52:14.406Z,23.27
2017-08-01T18:54:41.798Z,23.24
2017-08-01T18:57:09.198Z,23.29
2017-08-01T18:59:36.603Z,23.31
2017-08-01T19:02:04.256Z,23.57
2017-08-01T19:04:31.658Z,23.81
2017-08-01T19:06:59.047Z,23.83
2017-08-01T19:09:26.459Z,23.89
2017-08-01T19:11:53.854Z,23.86
2017-08-01T19:14:21.267Z,23.84
2017-08-01T19:16:48.662Z,23.89
2017-08-01T19:19:16.143Z,24.05
2017-08-01T19:21:43.552Z,24.16
2017-08-01T19:24:10.951Z,24.11
2017-08-01T19:26:38.343Z,24.19
2017-08-01T19:29:05.745Z,24.21
2017-08-01T19:31:33.147Z,24.16
2017-08-01T19:34:00.771Z,24.19
2017-08-01T19:36:28.199Z,24.11
2017-08-01T19:38:55.600Z,24.14
2017-08-01T19:41:22.992Z,24.21
2017-08-01T19:43:50.391Z,24.22
2017-08-01T19:46:17.836Z,24.08
2017-08-01T19:48:45.236Z,24.03
2017-08-01T19:51:12.634Z,23.94
2017-08-01T19:53:40.052Z,23.83
2017-08-01T19:56:07.443Z,23.72
2017-08-01T19:58:34.850Z,23.71
2017-08-01T20:01:02.463Z,23.84
2017-08-01T20:03:29.871Z,23.89
2017-08-01T20:05:57.268Z,24.06
2017-08-01T20:08:24.697Z,23.96
2017-08-01T20:10:52.109Z,23.95
2017-08-01T20:13:19.497Z,23.82
2017-08-01T20:15:46.899Z,23.66
2017-08-01T20:18:14.371Z,23.62
2017-08-01T20:20:41.775Z,23.60
2017-08-01T20:23:09.183Z,23.66
2017-08-01T20:25:36.590Z,23.59
2017-08-01T20:28:03.967Z,23.67
2017-08-01T20:30:31.379Z,23.67
2017-08-01T20:32:58.772Z,23.63
2017-08-01T20:35:26.176Z,23.59
2017-08-01T20:37:53.566Z,23.74
2017-08-01T20:40:20.990Z,23.70
2017-08-01T20:42:48.420Z,23.73
2017-08-01T20:45:15.828Z,23.82
2017-08-01T20:47:43.219Z,23.88
2017-08-01T20:50:10.623Z,23.88
2017-08-01T20:52:38.019Z,23.84
2017-08-01T20:55:05.432Z,23.91
2017-08-01T20:57:32.848Z,23.99
2017-08-01T21:00:00.260Z,24.06
2017-08-01T21:02:27.646Z,24.08
2017-08-01T21:04:55.057Z,24.13
2017-08-01T21:07:22.495Z,24.11
2017-08-01T21:09:49.875Z,24.20
2017-08-01T21:12:17.267Z,24.22
2017-08-01T21:14:44.675Z,24.27
2017-08-01T21:17:12.282Z,24.26
2017-08-01T21:19:39.680Z,24.08
2017-08-01T21:22:07.288Z,24.13
2017-08-01T21:24:34.700Z,24.13
2017-08-01T21:27:02.159Z,24.04
2017-08-01T21:29:29.550Z,24.05
2017-08-01T21:31:59.504Z,24.04
2017-08-01T21:34:26.911Z,24.02
2017-08-01T21:36:54.311Z,24.03
2017-08-01T21:39:21.694Z,23.96
2017-08-01T21:41:49.090Z,23.74
2017-08-01T21:44:16.499Z,23.54
2017-08-01T21:46:43.890Z,23.18
2017-08-01T21:49:11.281Z,23.08
2017-08-01T21:51:38.672Z,23.09
2017-08-01T21:54:06.063Z,22.99
2017-08-01T21:56:33.463Z,22.72
2017-08-01T21:59:00.862Z,22.62
2017-08-01T22:01:28.263Z,22.51
2017-08-01T22:03:55.654Z,22.32
2017-08-01T22:06:23.060Z,22.11
2017-08-01T22:08:50.452Z,22.04
2017-08-01T22:11:17.846Z,22.03
2017-08-01T22:13:45.238Z,22.21
2017-08-01T22:16:12.655Z,22.30
2017-08-01T22:18:40.036Z,22.47
2017-08-01T22:21:07.470Z,22.53
2017-08-01T22:23:34.856Z,22.47
2017-08-01T22:26:02.259Z,22.45
2017-08-01T22:28:29.675Z,22.44
2017-08-01T22:30:57.104Z,22.54
2017-08-01T22:33:24.508Z,22.56
2017-08-01T22:35:51.887Z,22.59
2017-08-01T22:38:19.293Z,22.55
2017-08-01T22:40:46.688Z,22.63
2017-08-01T22:43:14.083Z,22.58
2017-08-01T22:45:41.480Z,22.58
2017-08-01T22:48:08.878Z,22.62
2017-08-01T22:50:36.265Z,22.58
2017-08-01T22:53:03.654Z,22.51
2017-08-01T22:55:31.052Z,22.41
2017-08-01T22:57:58.453Z,22.45
2017-08-01T23:00:25.850Z,22.41
2017-08-01T23:02:53.301Z,22.54
2017-08-01T23:05:20.687Z,22.61
2017-08-01T23:07:48.137Z,22.59
2017-08-01T23:10:15.751Z,22.53
2017-08-01T23:12:43.139Z,22.57
2017-08-01T23:15:10.551Z,22.55
2017-08-01T23:17:37.947Z,22.61
2017-08-01T23:20:05.350Z,22.60
2017-08-01T23:22:32.734Z,22.61
2017-08-01T23:25:00.130Z,22.52
2017-08-01T23:27:27.534Z,22.56
2017-08-01T23:29:54.925Z,22.38
2017-08-01T23:32:22.331Z,22.38
2017-08-01T23:34:49.727Z,22.44
2017-08-01T23:37:17.136Z,22.49
2017-08-01T23:39:44.535Z,22.42
2017-08-01T23:42:11.939Z,22.32
2017-08-01T23:44:39.356Z,22.40
2017-08-01T23:47:06.769Z,22.43
2017-08-01T23:49:34.147Z,22.59
2017-08-01T23:52:01.543Z,22.38
2017-08-01T23:54:28.944Z,22.35
2017-08-01T23:56:56.343Z,22.16
2017-08-01T23:59:23.745Z,22.24
